createdAt,value
2023-04-29T00:00:11.290Z,9.95
2023-04-29T00:01:16.514Z,9.94
2023-04-29T00:02:18.954Z,9.92
2023-04-29T00:03:21.398Z,9.89
2023-04-29T00:04:24.047Z,9.94
2023-04-29T00:05:26.502Z,9.92
2023-04-29T00:06:28.732Z,9.86
2023-04-29T00:07:33.794Z,9.99
2023-04-29T00:08:36.191Z,9.86
2023-04-29T00:09:38.762Z,9.91
2023-04-29T00:10:41.082Z,9.90
2023-04-29T00:11:43.260Z,9.86
2023-04-29T00:12:45.429Z,9.84
2023-04-29T00:13:47.561Z,9.80
2023-04-29T00:14:49.704Z,9.86
2023-04-29T00:15:51.864Z,9.83
2023-04-29T00:16:54.061Z,9.85
2023-04-29T00:17:56.359Z,9.88
2023-04-29T00:18:59.589Z,9.80
2023-04-29T00:20:01.814Z,9.82
2023-04-29T00:21:06.067Z,9.82
2023-04-29T00:22:08.393Z,9.77
2023-04-29T00:23:11.134Z,9.85
2023-04-29T00:24:13.252Z,9.86
2023-04-29T00:25:15.965Z,9.88
2023-04-29T00:26:18.064Z,9.87
2023-04-29T00:27:22.650Z,9.84
2023-04-29T00:28:25.254Z,9.82
2023-04-29T00:29:27.773Z,9.78
2023-04-29T00:30:31.015Z,9.87
2023-04-29T00:31:33.339Z,9.90
2023-04-29T00:32:36.475Z,9.83
2023-04-29T00:33:39.755Z,9.82
2023-04-29T00:34:42.644Z,9.79
2023-04-29T00:35:44.910Z,9.82
2023-04-29T00:36:47.619Z,9.76
2023-04-29T00:37:49.800Z,9.81
2023-04-29T00:38:51.898Z,9.88
2023-04-29T00:39:54.168Z,9.79
2023-04-29T00:40:56.994Z,9.81
2023-04-29T00:41:59.217Z,9.83
2023-04-29T00:43:01.383Z,9.77
2023-04-29T00:44:03.643Z,9.74
2023-04-29T00:45:08.130Z,9.80
2023-04-29T00:46:10.533Z,9.69
2023-04-29T00:47:12.798Z,9.72
2023-04-29T00:48:15.851Z,9.66
2023-04-29T00:49:18.051Z,9.68
2023-04-29T00:50:22.126Z,9.90
2023-04-29T00:51:24.568Z,9.79
2023-04-29T00:52:30.671Z,9.78
2023-04-29T00:53:33.510Z,9.71
2023-04-29T00:54:35.758Z,9.69
2023-04-29T00:55:38.859Z,9.73
2023-04-29T00:56:44.209Z,9.72
2023-04-29T00:57:48.469Z,9.68
2023-04-29T00:58:52.470Z,9.74
2023-04-29T00:59:59.428Z,9.67
2023-04-29T01:01:02.318Z,9.69
2023-04-29T01:02:04.609Z,9.66
2023-04-29T01:03:09.000Z,9.69
2023-04-29T01:04:11.428Z,9.65
2023-04-29T01:05:15.147Z,9.65
2023-04-29T01:06:38.726Z,9.87
2023-04-29T01:08:06.228Z,9.77
2023-04-29T01:09:40.580Z,9.76
2023-04-29T01:10:50.638Z,9.69
2023-04-29T01:12:04.041Z,9.68
2023-04-29T01:13:14.252Z,9.65
2023-04-29T01:14:16.784Z,9.54
2023-04-29T01:15:26.730Z,9.71
2023-04-29T01:16:45.172Z,9.70
2023-04-29T01:18:12.721Z,9.73
2023-04-29T01:19:42.646Z,9.67
2023-04-29T01:20:45.327Z,9.53
2023-04-29T01:21:48.805Z,9.49
2023-04-29T01:22:51.321Z,9.44
2023-04-29T01:23:56.361Z,9.50
2023-04-29T01:25:01.132Z,9.50
2023-04-29T01:26:05.967Z,9.49
2023-04-29T01:27:31.805Z,9.63
2023-04-29T01:29:23.157Z,9.64
2023-04-29T01:30:34.460Z,9.42
2023-04-29T01:31:58.357Z,9.49
2023-04-29T01:33:08.740Z,9.45
2023-04-29T01:34:25.560Z,9.48
2023-04-29T01:35:37.444Z,9.48
2023-04-29T01:36:45.665Z,9.41
2023-04-29T01:38:12.041Z,9.50
2023-04-29T01:39:46.527Z,9.52
2023-04-29T01:41:15.223Z,9.57
2023-04-29T01:42:45.950Z,9.47
2023-04-29T01:43:52.384Z,9.30
2023-04-29T01:45:01.945Z,9.38
2023-04-29T01:46:06.713Z,9.34
2023-04-29T01:47:13.595Z,9.35
2023-04-29T01:48:20.744Z,9.25
2023-04-29T01:49:27.607Z,9.36
2023-04-29T01:50:30.445Z,9.23
2023-04-29T01:51:39.596Z,9.27
2023-04-29T01:52:41.745Z,9.33
2023-04-29T01:53:44.388Z,9.29
2023-04-29T01:54:47.253Z,9.24
2023-04-29T01:55:50.106Z,9.28
2023-04-29T01:56:58.728Z,9.23
2023-04-29T01:58:17.826Z,9.25
2023-04-29T01:59:25.494Z,9.22
2023-04-29T02:00:39.331Z,9.19
2023-04-29T02:01:41.522Z,9.22
2023-04-29T02:02:43.740Z,9.26
2023-04-29T02:04:06.733Z,9.23
2023-04-29T02:05:09.853Z,9.21
2023-04-29T02:06:15.977Z,9.19
2023-04-29T02:07:18.755Z,9.19
2023-04-29T02:08:22.198Z,9.21
2023-04-29T02:09:25.512Z,9.21
2023-04-29T02:10:34.228Z,9.26
2023-04-29T02:11:59.194Z,9.21
2023-04-29T02:13:01.551Z,9.17
2023-04-29T02:14:04.671Z,9.16
2023-04-29T02:15:08.610Z,9.22
2023-04-29T02:16:12.840Z,9.25
2023-04-29T02:17:27.850Z,9.23
2023-04-29T02:18:30.111Z,9.19
2023-04-29T02:19:32.266Z,9.17
2023-04-29T02:20:34.523Z,9.15
2023-04-29T02:21:40.392Z,9.15
2023-04-29T02:22:42.740Z,9.15
2023-04-29T02:23:45.185Z,9.14
2023-04-29T02:24:47.689Z,9.15
2023-04-29T02:25:49.854Z,9.14
2023-04-29T02:26:52.025Z,9.15
2023-04-29T02:27:54.209Z,9.10
2023-04-29T02:28:57.426Z,9.05
2023-04-29T02:30:00.004Z,9.13
2023-04-29T02:31:02.414Z,9.10
2023-04-29T02:32:06.415Z,9.07
2023-04-29T02:33:08.915Z,9.08
2023-04-29T02:34:11.113Z,9.02
2023-04-29T02:35:13.404Z,8.99
2023-04-29T02:36:15.817Z,9.12
2023-04-29T02:37:19.129Z,9.06
2023-04-29T02:38:21.759Z,9.07
2023-04-29T02:39:24.036Z,9.01
2023-04-29T02:40:30.312Z,9.02
2023-04-29T02:41:33.979Z,8.99
2023-04-29T02:42:36.110Z,8.97
2023-04-29T02:43:38.313Z,8.98
2023-04-29T02:44:41.490Z,8.98
2023-04-29T02:45:44.674Z,8.93
2023-04-29T02:46:46.889Z,8.95
2023-04-29T02:47:49.177Z,9.00
2023-04-29T02:48:51.424Z,8.96
2023-04-29T02:49:53.903Z,8.97
2023-04-29T02:50:56.289Z,8.96
2023-04-29T02:51:58.545Z,8.92
2023-04-29T02:53:00.787Z,8.97
2023-04-29T02:54:03.068Z,8.93
2023-04-29T02:55:05.583Z,8.96
2023-04-29T02:56:07.821Z,9.00
2023-04-29T02:57:10.301Z,8.93
2023-04-29T02:58:12.518Z,9.05
2023-04-29T02:59:14.639Z,9.06
2023-04-29T03:00:16.791Z,9.05
2023-04-29T03:01:18.950Z,9.03
2023-04-29T03:02:21.223Z,8.97
2023-04-29T03:03:27.428Z,8.97
2023-04-29T03:04:30.080Z,8.95
2023-04-29T03:05:32.914Z,9.03
2023-04-29T03:06:35.078Z,8.99
2023-04-29T03:07:37.361Z,9.02
2023-04-29T03:08:39.556Z,9.01
2023-04-29T03:09:41.700Z,8.96
2023-04-29T03:10:44.038Z,8.95
2023-04-29T03:11:46.213Z,9.00
2023-04-29T03:12:48.360Z,8.96
2023-04-29T03:13:51.354Z,9.05
2023-04-29T03:14:53.477Z,8.98
2023-04-29T03:15:58.617Z,8.93
2023-04-29T03:17:00.856Z,8.90
2023-04-29T03:18:04.828Z,8.84
2023-04-29T03:19:09.142Z,8.86
2023-04-29T03:20:11.802Z,8.87
2023-04-29T03:21:15.160Z,8.86
2023-04-29T03:22:17.445Z,8.83
2023-04-29T03:23:19.681Z,8.88
2023-04-29T03:24:22.124Z,8.88
2023-04-29T03:25:24.647Z,8.86
2023-04-29T03:26:27.152Z,8.90
2023-04-29T03:27:29.399Z,8.92
2023-04-29T03:28:31.941Z,8.91
2023-04-29T03:29:34.234Z,8.91
2023-04-29T03:30:36.742Z,8.92
2023-04-29T03:31:39.165Z,8.86
2023-04-29T03:32:41.520Z,8.87
2023-04-29T03:33:43.858Z,8.89
2023-04-29T03:34:46.045Z,8.86
2023-04-29T03:36:10.601Z,8.90
2023-04-29T03:37:16.619Z,8.89
2023-04-29T03:38:22.553Z,8.92
2023-04-29T03:39:24.889Z,8.91
2023-04-29T03:40:27.789Z,8.95
2023-04-29T03:41:29.991Z,8.90
2023-04-29T03:42:32.273Z,8.92
2023-04-29T03:43:34.535Z,8.95
2023-04-29T03:44:36.916Z,8.93
2023-04-29T03:45:39.201Z,8.89
2023-04-29T03:46:42.132Z,8.86
2023-04-29T03:47:44.438Z,8.84
2023-04-29T03:48:46.653Z,8.85
2023-04-29T03:49:49.269Z,8.83
2023-04-29T03:50:51.519Z,8.79
2023-04-29T03:51:53.947Z,8.82
2023-04-29T03:52:57.848Z,8.82
2023-04-29T03:54:00.176Z,8.88
2023-04-29T03:55:03.246Z,8.85
2023-04-29T03:56:05.604Z,8.80
2023-04-29T03:57:08.002Z,8.83
2023-04-29T03:58:10.659Z,8.87
2023-04-29T03:59:12.957Z,8.83
2023-04-29T04:00:17.102Z,8.83
2023-04-29T04:01:21.881Z,8.88
2023-04-29T04:02:24.584Z,8.84
2023-04-29T04:03:28.327Z,8.82
2023-04-29T04:04:33.195Z,8.81
2023-04-29T04:05:35.582Z,8.86
2023-04-29T04:06:44.228Z,8.86
2023-04-29T04:07:47.576Z,8.94
2023-04-29T04:09:09.708Z,8.94
2023-04-29T04:10:12.578Z,8.89
2023-04-29T04:11:15.303Z,8.90
2023-04-29T04:12:21.052Z,8.94
2023-04-29T04:13:23.402Z,8.94
2023-04-29T04:14:25.689Z,8.89
2023-04-29T04:15:27.945Z,8.87
2023-04-29T04:16:30.194Z,8.98
2023-04-29T04:17:32.405Z,8.89
2023-04-29T04:18:34.637Z,8.88
2023-04-29T04:19:37.284Z,8.87
2023-04-29T04:20:39.637Z,8.88
2023-04-29T04:21:42.425Z,8.95
2023-04-29T04:22:45.769Z,8.95
2023-04-29T04:23:53.694Z,8.94
2023-04-29T04:24:58.526Z,8.96
2023-04-29T04:26:00.942Z,8.96
2023-04-29T04:27:21.665Z,9.01
2023-04-29T04:28:24.425Z,8.98
2023-04-29T04:29:37.033Z,8.94
2023-04-29T04:30:46.426Z,9.10
2023-04-29T04:31:48.738Z,9.00
2023-04-29T04:32:56.030Z,8.99
2023-04-29T04:33:59.886Z,8.97
2023-04-29T04:35:02.673Z,8.94
2023-04-29T04:36:05.289Z,8.90
2023-04-29T04:37:07.562Z,8.93
2023-04-29T04:38:11.449Z,8.93
2023-04-29T04:39:14.119Z,8.88
2023-04-29T04:40:17.053Z,8.89
2023-04-29T04:41:39.249Z,8.93
2023-04-29T04:42:41.507Z,8.94
2023-04-29T04:43:47.858Z,8.94
2023-04-29T04:44:57.673Z,8.98
2023-04-29T04:46:14.293Z,9.00
2023-04-29T04:47:26.788Z,8.98
2023-04-29T04:48:36.529Z,8.98
2023-04-29T04:49:38.756Z,8.95
2023-04-29T04:50:41.442Z,8.97
2023-04-29T04:51:47.313Z,9.09
2023-04-29T04:52:49.832Z,8.93
2023-04-29T04:54:12.340Z,8.98
2023-04-29T04:55:15.218Z,8.90
2023-04-29T04:56:20.575Z,8.96
2023-04-29T04:57:22.879Z,8.97
2023-04-29T04:58:26.663Z,8.96
2023-04-29T04:59:28.811Z,8.98
2023-04-29T05:00:31.093Z,9.04
2023-04-29T05:01:34.178Z,9.05
2023-04-29T05:02:36.758Z,9.03
2023-04-29T05:03:39.153Z,9.01
2023-04-29T05:04:41.651Z,9.05
2023-04-29T05:05:43.948Z,9.04
2023-04-29T05:06:46.815Z,9.02
2023-04-29T05:07:48.996Z,9.03
2023-04-29T05:08:51.725Z,9.03
2023-04-29T05:09:54.139Z,9.08
2023-04-29T05:10:58.210Z,9.04
2023-04-29T05:12:01.355Z,9.11
2023-04-29T05:13:06.221Z,9.10
2023-04-29T05:14:09.427Z,9.04
2023-04-29T05:15:11.696Z,8.98
2023-04-29T05:16:19.726Z,9.04
2023-04-29T05:17:23.787Z,9.01
2023-04-29T05:18:25.972Z,9.04
2023-04-29T05:19:28.115Z,9.03
2023-04-29T05:20:30.456Z,9.01
2023-04-29T05:21:34.741Z,9.02
2023-04-29T05:22:37.283Z,9.01
2023-04-29T05:23:39.560Z,9.08
2023-04-29T05:24:41.775Z,9.00
2023-04-29T05:25:43.936Z,9.00
2023-04-29T05:26:46.255Z,9.00
2023-04-29T05:27:48.425Z,8.99
2023-04-29T05:28:53.645Z,9.03
2023-04-29T05:29:56.183Z,9.09
2023-04-29T05:30:58.522Z,9.08
2023-04-29T05:32:00.820Z,9.06
2023-04-29T05:33:03.654Z,9.08
2023-04-29T05:34:05.900Z,9.12
2023-04-29T05:35:08.644Z,9.05
2023-04-29T05:36:11.117Z,9.04
2023-04-29T05:37:13.496Z,9.04
2023-04-29T05:38:32.860Z,9.04
2023-04-29T05:39:43.873Z,9.07
2023-04-29T05:40:51.202Z,9.13
2023-04-29T05:42:13.638Z,9.02
2023-04-29T05:43:20.923Z,9.06
2023-04-29T05:44:23.756Z,8.99
2023-04-29T05:45:25.997Z,9.05
2023-04-29T05:46:28.246Z,8.98
2023-04-29T05:47:30.807Z,9.01
2023-04-29T05:48:33.032Z,9.11
2023-04-29T05:49:35.148Z,9.10
2023-04-29T05:50:37.396Z,9.05
2023-04-29T05:51:39.582Z,9.01
2023-04-29T05:52:42.049Z,9.09
2023-04-29T05:53:44.770Z,9.11
2023-04-29T05:54:46.999Z,9.14
2023-04-29T05:55:51.443Z,9.10
2023-04-29T05:56:55.746Z,9.07
2023-04-29T05:57:58.152Z,9.12
2023-04-29T05:59:00.471Z,9.13
2023-04-29T06:00:06.894Z,9.26
2023-04-29T06:01:17.437Z,9.15
2023-04-29T06:02:21.207Z,9.18
2023-04-29T06:03:24.259Z,9.24
2023-04-29T06:04:52.627Z,9.25
2023-04-29T06:06:02.055Z,9.25
2023-04-29T06:07:25.116Z,9.25
2023-04-29T06:08:34.823Z,9.29
2023-04-29T06:09:39.704Z,9.24
2023-04-29T06:10:41.887Z,9.21
2023-04-29T06:11:45.309Z,9.19
2023-04-29T06:12:50.765Z,9.16
2023-04-29T06:13:52.975Z,9.20
2023-04-29T06:14:55.498Z,9.23
2023-04-29T06:15:57.785Z,9.22
2023-04-29T06:17:02.089Z,9.23
2023-04-29T06:18:04.826Z,9.30
2023-04-29T06:19:07.147Z,9.35
2023-04-29T06:20:10.262Z,9.41
2023-04-29T06:21:15.018Z,9.38
2023-04-29T06:22:18.320Z,9.38
2023-04-29T06:23:24.953Z,9.43
2023-04-29T06:24:27.434Z,9.40
2023-04-29T06:25:29.727Z,9.47
2023-04-29T06:26:31.965Z,9.48
2023-04-29T06:27:34.275Z,9.49
2023-04-29T06:28:36.696Z,9.47
2023-04-29T06:29:39.209Z,9.50
2023-04-29T06:30:41.685Z,9.52
2023-04-29T06:31:44.300Z,9.59
2023-04-29T06:32:46.506Z,9.60
2023-04-29T06:33:49.172Z,9.66
2023-04-29T06:34:51.572Z,9.72
2023-04-29T06:36:13.939Z,9.77
2023-04-29T06:37:16.343Z,9.75
2023-04-29T06:38:47.834Z,9.80
2023-04-29T06:40:12.340Z,9.81
2023-04-29T06:41:36.765Z,9.86
2023-04-29T06:42:48.027Z,9.94
2023-04-29T06:44:08.716Z,10.01
2023-04-29T06:45:46.923Z,10.19
2023-04-29T06:46:55.520Z,10.12
2023-04-29T06:48:20.948Z,10.20
2023-04-29T06:49:24.382Z,10.21
2023-04-29T06:50:26.996Z,10.30
2023-04-29T06:51:29.445Z,10.27
2023-04-29T06:52:33.545Z,10.31
2023-04-29T06:53:35.994Z,10.34
2023-04-29T06:54:38.284Z,10.36
2023-04-29T06:55:41.316Z,10.30
2023-04-29T06:56:44.210Z,10.31
2023-04-29T06:57:46.360Z,10.39
2023-04-29T06:58:49.734Z,10.46
2023-04-29T06:59:52.065Z,10.57
2023-04-29T07:00:54.420Z,10.66
2023-04-29T07:01:57.850Z,10.60
2023-04-29T07:03:00.422Z,10.59
2023-04-29T07:04:02.904Z,10.65
2023-04-29T07:05:06.389Z,10.70
2023-04-29T07:06:08.674Z,10.75
2023-04-29T07:07:10.866Z,10.80
2023-04-29T07:08:13.579Z,10.91
2023-04-29T07:09:15.785Z,10.98
2023-04-29T07:10:18.038Z,10.93
2023-04-29T07:11:20.217Z,11.03
2023-04-29T07:12:22.396Z,11.06
2023-04-29T07:13:28.887Z,11.06
2023-04-29T07:14:31.987Z,11.06
2023-04-29T07:15:35.856Z,11.22
2023-04-29T07:16:38.555Z,11.13
2023-04-29T07:17:45.757Z,11.34
2023-04-29T07:18:51.968Z,11.23
2023-04-29T07:19:54.710Z,11.38
2023-04-29T07:21:01.777Z,11.52
2023-04-29T07:22:05.603Z,11.39
2023-04-29T07:23:07.871Z,11.49
2023-04-29T07:24:10.051Z,11.61
2023-04-29T07:25:12.302Z,11.58
2023-04-29T07:26:16.602Z,11.71
2023-04-29T07:27:20.693Z,11.77
2023-04-29T07:28:22.898Z,11.68
2023-04-29T07:29:28.245Z,11.72
2023-04-29T07:30:30.511Z,11.86
2023-04-29T07:31:34.339Z,11.92
2023-04-29T07:32:39.205Z,11.90
2023-04-29T07:33:41.397Z,11.93
2023-04-29T07:34:44.589Z,12.02
2023-04-29T07:35:47.176Z,12.16
2023-04-29T07:36:49.896Z,12.19
2023-04-29T07:37:52.100Z,12.37
2023-04-29T07:38:55.225Z,12.45
2023-04-29T07:39:57.452Z,12.52
2023-04-29T07:41:00.974Z,12.48
2023-04-29T07:42:04.606Z,12.45
2023-04-29T07:43:09.126Z,12.37
2023-04-29T07:44:11.376Z,12.41
2023-04-29T07:45:14.022Z,12.53
2023-04-29T07:46:18.232Z,12.53
2023-04-29T07:47:20.596Z,12.49
2023-04-29T07:48:22.968Z,12.69
2023-04-29T07:49:26.185Z,12.62
2023-04-29T07:50:28.440Z,12.73
2023-04-29T07:51:30.605Z,12.84
2023-04-29T07:52:32.776Z,12.88
2023-04-29T07:53:34.945Z,12.90
2023-04-29T07:54:37.215Z,12.88
2023-04-29T07:55:40.085Z,13.08
2023-04-29T07:56:42.464Z,13.11
2023-04-29T07:57:44.698Z,13.15
2023-04-29T07:58:47.156Z,13.20
2023-04-29T07:59:55.278Z,13.60
2023-04-29T08:00:57.567Z,13.44
2023-04-29T08:01:59.818Z,13.50
2023-04-29T08:03:02.337Z,13.67
2023-04-29T08:04:04.823Z,13.68
2023-04-29T08:05:11.339Z,13.78
2023-04-29T08:06:14.592Z,13.91
2023-04-29T08:07:18.046Z,13.84
2023-04-29T08:08:20.290Z,13.81
2023-04-29T08:09:22.587Z,13.97
2023-04-29T08:10:24.838Z,13.88
2023-04-29T08:11:27.625Z,13.86
2023-04-29T08:12:31.148Z,13.91
2023-04-29T08:13:33.399Z,13.87
2023-04-29T08:14:36.468Z,13.95
2023-04-29T08:15:38.669Z,13.83
2023-04-29T08:16:40.935Z,13.90
2023-04-29T08:17:43.444Z,13.79
2023-04-29T08:18:45.699Z,13.71
2023-04-29T08:19:48.006Z,13.56
2023-04-29T08:20:50.182Z,13.50
2023-04-29T08:21:52.686Z,13.51
2023-04-29T08:22:54.986Z,13.47
2023-04-29T08:23:57.187Z,13.55
2023-04-29T08:24:59.401Z,13.44
2023-04-29T08:26:02.984Z,13.69
2023-04-29T08:27:05.172Z,13.72
2023-04-29T08:28:07.602Z,13.76
2023-04-29T08:29:09.958Z,14.01
2023-04-29T08:30:12.645Z,14.08
2023-04-29T08:31:19.071Z,14.30
2023-04-29T08:32:21.391Z,14.33
2023-04-29T08:33:23.664Z,14.55
2023-04-29T08:34:25.931Z,14.81
2023-04-29T08:35:28.062Z,15.01
2023-04-29T08:36:30.533Z,15.05
2023-04-29T08:37:32.725Z,15.11
2023-04-29T08:38:34.862Z,15.13
2023-04-29T08:39:37.108Z,15.27
2023-04-29T08:40:45.762Z,15.65
2023-04-29T08:41:51.385Z,15.31
2023-04-29T08:42:54.526Z,15.67
2023-04-29T08:43:56.742Z,16.12
2023-04-29T08:45:00.064Z,16.37
2023-04-29T08:46:03.313Z,16.52
2023-04-29T08:47:07.095Z,17.12
2023-04-29T08:48:10.440Z,17.42
2023-04-29T08:49:13.739Z,17.81
2023-04-29T08:50:16.015Z,17.84
2023-04-29T08:51:18.191Z,17.89
2023-04-29T08:52:20.372Z,18.11
2023-04-29T08:53:22.894Z,18.49
2023-04-29T08:54:25.215Z,18.75
2023-04-29T08:55:27.615Z,18.48
2023-04-29T08:56:31.368Z,18.98
2023-04-29T08:57:39.904Z,19.01
2023-04-29T08:58:43.497Z,18.82
2023-04-29T08:59:45.955Z,18.58
2023-04-29T09:00:49.249Z,19.45
2023-04-29T09:01:54.131Z,19.35
2023-04-29T09:02:58.529Z,19.94
2023-04-29T09:04:30.008Z,19.85
2023-04-29T09:05:34.089Z,20.01
2023-04-29T09:06:36.364Z,19.73
2023-04-29T09:07:42.530Z,19.88
2023-04-29T09:08:45.036Z,20.13
2023-04-29T09:09:47.977Z,19.83
2023-04-29T09:10:53.515Z,19.88
2023-04-29T09:11:55.912Z,19.96
2023-04-29T09:13:01.276Z,20.06
2023-04-29T09:14:04.427Z,20.88
2023-04-29T09:15:07.203Z,21.66
2023-04-29T09:16:13.108Z,22.43
2023-04-29T09:17:16.475Z,23.12
2023-04-29T09:18:43.902Z,23.90
2023-04-29T09:19:46.104Z,25.07
2023-04-29T09:20:48.318Z,25.37
2023-04-29T09:21:57.173Z,25.29
2023-04-29T09:23:04.017Z,25.78
2023-04-29T09:24:06.314Z,25.13
2023-04-29T09:25:15.397Z,25.42
2023-04-29T09:26:17.862Z,25.87
2023-04-29T09:27:29.436Z,25.95
2023-04-29T09:28:31.922Z,25.51
2023-04-29T09:29:36.495Z,25.43
2023-04-29T09:30:46.067Z,26.19
2023-04-29T09:31:49.627Z,25.90
2023-04-29T09:33:08.163Z,26.50
2023-04-29T09:34:14.255Z,26.11
2023-04-29T09:35:27.153Z,26.62
2023-04-29T09:36:55.036Z,27.39
2023-04-29T09:38:10.960Z,27.19
2023-04-29T09:39:20.726Z,27.25
2023-04-29T09:40:43.422Z,27.00
2023-04-29T09:41:55.087Z,27.48
2023-04-29T09:42:58.012Z,27.10
2023-04-29T09:44:10.537Z,27.89
2023-04-29T09:45:12.823Z,28.21
2023-04-29T09:46:16.237Z,28.73
2023-04-29T09:47:31.250Z,27.81
2023-04-29T09:48:34.200Z,27.21
2023-04-29T09:49:41.947Z,28.03
2023-04-29T09:50:58.666Z,27.82
2023-04-29T09:52:04.018Z,28.45
2023-04-29T09:53:10.889Z,29.10
2023-04-29T09:54:28.552Z,28.70
2023-04-29T09:55:31.954Z,28.95
2023-04-29T09:56:50.630Z,28.70
2023-04-29T09:57:53.783Z,28.43
2023-04-29T09:58:57.302Z,27.52
2023-04-29T09:59:59.414Z,26.42
2023-04-29T10:01:03.223Z,25.46
2023-04-29T10:02:19.052Z,24.64
2023-04-29T10:03:22.673Z,24.57
2023-04-29T10:04:27.990Z,23.69
2023-04-29T10:05:33.072Z,22.98
2023-04-29T10:06:35.701Z,23.51
2023-04-29T10:07:40.073Z,24.33
2023-04-29T10:08:44.056Z,25.53
2023-04-29T10:09:47.921Z,26.17
2023-04-29T10:10:57.489Z,26.76
2023-04-29T10:12:02.083Z,26.78
2023-04-29T10:13:05.462Z,27.69
2023-04-29T10:14:09.947Z,27.35
2023-04-29T10:15:26.168Z,28.06
2023-04-29T10:16:31.436Z,28.31
2023-04-29T10:17:43.963Z,28.85
2023-04-29T10:18:52.199Z,28.91
2023-04-29T10:20:08.289Z,28.36
2023-04-29T10:21:11.760Z,28.58
2023-04-29T10:22:23.688Z,27.45
2023-04-29T10:23:26.732Z,27.10
2023-04-29T10:24:28.908Z,26.86
2023-04-29T10:25:32.509Z,27.19
2023-04-29T10:26:39.057Z,26.41
2023-04-29T10:27:44.567Z,25.77
2023-04-29T10:28:51.557Z,26.26
2023-04-29T10:29:56.701Z,26.89
2023-04-29T10:31:05.493Z,26.41
2023-04-29T10:32:10.809Z,26.26
2023-04-29T10:33:16.782Z,26.41
2023-04-29T10:34:19.919Z,26.72
2023-04-29T10:35:24.485Z,27.29
2023-04-29T10:36:28.579Z,27.93
2023-04-29T10:37:31.290Z,28.54
2023-04-29T10:38:37.124Z,28.68
2023-04-29T10:39:42.285Z,27.84
2023-04-29T10:40:46.743Z,26.96
2023-04-29T10:41:50.802Z,27.51
2023-04-29T10:42:54.060Z,27.61
2023-04-29T10:43:59.086Z,28.40
2023-04-29T10:45:20.410Z,28.29
2023-04-29T10:46:26.327Z,29.41
2023-04-29T10:47:28.650Z,30.12
2023-04-29T10:48:32.434Z,30.36
2023-04-29T10:49:35.038Z,29.79
2023-04-29T10:50:49.428Z,29.14
2023-04-29T10:51:51.676Z,27.14
2023-04-29T10:52:55.757Z,26.27
2023-04-29T10:54:13.567Z,24.61
2023-04-29T10:55:15.822Z,24.00
2023-04-29T10:56:18.113Z,23.81
2023-04-29T10:57:23.177Z,24.84
2023-04-29T10:58:44.915Z,24.95
2023-04-29T10:59:47.804Z,25.48
2023-04-29T11:00:50.052Z,26.65
2023-04-29T11:01:53.600Z,27.47
2023-04-29T11:03:00.706Z,28.18
2023-04-29T11:04:05.115Z,27.23
2023-04-29T11:05:09.964Z,27.65
2023-04-29T11:06:12.221Z,28.04
2023-04-29T11:07:28.391Z,27.50
2023-04-29T11:08:30.662Z,26.71
2023-04-29T11:09:37.173Z,25.30
2023-04-29T11:10:43.973Z,25.18
2023-04-29T11:11:57.927Z,25.08
2023-04-29T11:13:23.312Z,26.18
2023-04-29T11:14:32.542Z,26.54
2023-04-29T11:15:35.394Z,26.62
2023-04-29T11:16:40.315Z,27.17
2023-04-29T11:17:42.657Z,27.85
2023-04-29T11:19:06.696Z,28.42
2023-04-29T11:20:14.173Z,28.57
2023-04-29T11:21:16.530Z,28.76
2023-04-29T11:22:33.820Z,28.39
2023-04-29T11:23:37.158Z,28.02
2023-04-29T11:24:56.026Z,28.03
2023-04-29T11:25:58.442Z,28.30
2023-04-29T11:27:04.334Z,28.73
2023-04-29T11:28:07.695Z,29.25
2023-04-29T11:29:10.789Z,29.22
2023-04-29T11:30:13.706Z,29.69
2023-04-29T11:31:15.980Z,29.87
2023-04-29T11:32:23.277Z,29.13
2023-04-29T11:33:27.814Z,29.12
2023-04-29T11:34:30.066Z,28.20
2023-04-29T11:35:32.226Z,28.52
2023-04-29T11:36:35.859Z,28.14
2023-04-29T11:37:38.597Z,28.52
2023-04-29T11:38:43.887Z,28.83
2023-04-29T11:39:46.048Z,28.00
2023-04-29T11:40:51.971Z,27.68
2023-04-29T11:42:06.427Z,27.52
2023-04-29T11:43:08.663Z,27.01
2023-04-29T11:44:12.159Z,26.08
2023-04-29T11:45:15.227Z,26.16
2023-04-29T11:46:17.684Z,26.64
2023-04-29T11:47:21.512Z,26.92
2023-04-29T11:48:26.120Z,27.31
2023-04-29T11:49:37.997Z,27.80
2023-04-29T11:50:42.197Z,28.66
2023-04-29T11:51:44.406Z,28.60
2023-04-29T11:52:47.950Z,29.05
2023-04-29T11:53:51.548Z,28.74
2023-04-29T11:54:54.133Z,27.33
2023-04-29T11:55:57.193Z,27.26
2023-04-29T11:56:59.476Z,27.91
2023-04-29T11:58:01.723Z,28.25
2023-04-29T11:59:08.084Z,28.89
2023-04-29T12:00:13.727Z,29.05
2023-04-29T12:01:16.149Z,28.53
2023-04-29T12:02:22.298Z,27.70
2023-04-29T12:03:24.951Z,27.12
2023-04-29T12:04:27.942Z,27.24
2023-04-29T12:05:30.517Z,26.90
2023-04-29T12:06:32.666Z,27.59
2023-04-29T12:07:38.381Z,28.30
2023-04-29T12:08:40.597Z,28.79
2023-04-29T12:09:46.455Z,27.87
2023-04-29T12:10:49.305Z,28.36
2023-04-29T12:11:52.684Z,28.75
2023-04-29T12:12:55.000Z,28.71
2023-04-29T12:13:58.130Z,28.76
2023-04-29T12:15:00.450Z,27.55
2023-04-29T12:16:03.468Z,27.98
2023-04-29T12:17:06.843Z,28.14
2023-04-29T12:18:09.775Z,28.46
2023-04-29T12:19:12.131Z,28.42
2023-04-29T12:20:15.103Z,28.46
2023-04-29T12:21:17.652Z,28.53
2023-04-29T12:22:19.895Z,27.96
2023-04-29T12:23:23.966Z,28.49
2023-04-29T12:24:26.286Z,28.06
2023-04-29T12:25:28.666Z,28.09
2023-04-29T12:26:31.472Z,27.71
2023-04-29T12:27:35.636Z,27.52
2023-04-29T12:28:38.155Z,27.01
2023-04-29T12:29:40.763Z,26.07
2023-04-29T12:30:51.574Z,25.48
2023-04-29T12:31:53.812Z,25.32
2023-04-29T12:32:56.200Z,25.50
2023-04-29T12:33:58.333Z,24.98
2023-04-29T12:35:00.603Z,25.48
2023-04-29T12:36:03.203Z,26.35
2023-04-29T12:37:05.439Z,26.78
2023-04-29T12:38:08.608Z,26.69
2023-04-29T12:39:11.295Z,26.20
2023-04-29T12:40:16.315Z,26.01
2023-04-29T12:41:18.848Z,26.28
2023-04-29T12:42:21.138Z,25.90
2023-04-29T12:43:30.700Z,25.98
2023-04-29T12:44:38.944Z,25.88
2023-04-29T12:45:41.284Z,25.80
2023-04-29T12:46:43.522Z,26.16
2023-04-29T12:47:46.619Z,25.78
2023-04-29T12:48:48.829Z,25.63
2023-04-29T12:49:51.015Z,25.90
2023-04-29T12:50:53.284Z,26.08
2023-04-29T12:51:55.465Z,25.92
2023-04-29T12:52:57.624Z,25.44
2023-04-29T12:54:04.717Z,25.57
2023-04-29T12:55:07.558Z,24.86
2023-04-29T12:56:12.328Z,25.78
2023-04-29T12:57:14.556Z,25.31
2023-04-29T12:58:16.875Z,25.26
2023-04-29T12:59:19.040Z,25.46
2023-04-29T13:00:21.621Z,25.55
2023-04-29T13:02:26.402Z,24.39
2023-04-29T13:03:29.064Z,23.72
2023-04-29T13:04:31.739Z,23.73
2023-04-29T13:05:34.291Z,23.69
2023-04-29T13:06:39.606Z,23.62
2023-04-29T13:07:42.357Z,23.79
2023-04-29T13:08:44.577Z,23.88
2023-04-29T13:09:46.708Z,23.72
2023-04-29T13:10:49.596Z,23.64
2023-04-29T13:11:51.849Z,23.90
2023-04-29T13:12:54.674Z,24.00
2023-04-29T13:13:57.332Z,23.83
2023-04-29T13:14:59.908Z,23.53
2023-04-29T13:16:02.475Z,23.48
2023-04-29T13:17:05.005Z,23.60
2023-04-29T13:18:07.451Z,23.51
2023-04-29T13:19:28.122Z,23.73
2023-04-29T13:20:33.132Z,23.55
2023-04-29T13:21:35.323Z,22.70
2023-04-29T13:22:37.610Z,22.37
2023-04-29T13:23:39.758Z,22.81
2023-04-29T13:24:41.921Z,22.97
2023-04-29T13:25:44.020Z,22.84
2023-04-29T13:26:49.122Z,22.96
2023-04-29T13:27:53.216Z,22.70
2023-04-29T13:28:55.491Z,22.74
2023-04-29T13:29:58.068Z,22.79
2023-04-29T13:31:00.271Z,22.58
2023-04-29T13:32:02.489Z,22.50
2023-04-29T13:33:11.847Z,22.41
2023-04-29T13:34:15.509Z,22.12
2023-04-29T13:35:17.906Z,21.92
2023-04-29T13:36:20.094Z,21.88
2023-04-29T13:37:22.411Z,21.91
2023-04-29T13:38:25.011Z,21.63
2023-04-29T13:39:27.388Z,21.73
2023-04-29T13:40:30.836Z,21.48
2023-04-29T13:41:35.600Z,21.42
2023-04-29T13:42:45.266Z,21.77
2023-04-29T13:43:51.548Z,21.91
2023-04-29T13:44:57.373Z,21.66
2023-04-29T13:45:59.577Z,21.54
2023-04-29T13:47:02.116Z,21.91
2023-04-29T13:48:12.023Z,21.96
2023-04-29T13:52:20.309Z,22.12
2023-04-29T13:57:11.048Z,22.05
2023-04-29T13:58:30.897Z,22.11
2023-04-29T14:00:25.279Z,21.93
2023-04-29T14:02:37.047Z,21.38
2023-04-29T14:03:39.417Z,21.43
2023-04-29T14:04:41.875Z,21.33
2023-04-29T14:05:45.013Z,21.55
2023-04-29T14:06:47.322Z,21.53
2023-04-29T14:07:49.453Z,21.64
2023-04-29T14:08:51.581Z,21.69
2023-04-29T14:09:53.802Z,21.79
2023-04-29T14:10:56.043Z,21.52
2023-04-29T14:11:58.189Z,21.70
2023-04-29T14:13:00.724Z,21.95
2023-04-29T14:14:03.505Z,21.74
2023-04-29T14:15:06.455Z,21.58
2023-04-29T14:16:09.483Z,21.41
2023-04-29T14:17:12.277Z,21.49
2023-04-29T14:18:14.400Z,21.23
2023-04-29T14:19:16.968Z,21.45
2023-04-29T14:20:19.213Z,21.31
2023-04-29T14:21:24.574Z,21.40